sensor_id;sensor_type;location;lat;lon;timestamp;pressure;altitude;pressure_sealevel;temperature;humidity
63009;BME280;49099;28.428;-16.488;2023-04-20T00:02:05;98493.38;;;19.74;54.67
63009;BME280;49099;28.428;-16.488;2023-04-20T00:04:33;98489.56;;;19.75;54.99
63009;BME280;49099;28.428;-16.488;2023-04-20T00:07:00;98491.34;;;19.71;55.20
63009;BME280;49099;28.428;-16.488;2023-04-20T00:09:28;98481.53;;;19.67;55.19
63009;BME280;49099;28.428;-16.488;2023-04-20T00:11:55;98498.31;;;19.72;55.31
63009;BME280;49099;28.428;-16.488;2023-04-20T00:14:22;98488.66;;;19.71;55.31
63009;BME280;49099;28.428;-16.488;2023-04-20T00:16:49;98485.13;;;19.80;55.40
63009;BME280;49099;28.428;-16.488;2023-04-20T00:19:17;98491.94;;;19.86;55.03
63009;BME280;49099;28.428;-16.488;2023-04-20T00:21:44;98476.91;;;19.76;55.12
63009;BME280;49099;28.428;-16.488;2023-04-20T00:24:12;98477.69;;;19.76;55.26
63009;BME280;49099;28.428;-16.488;2023-04-20T00:26:39;98480.38;;;19.85;55.01
63009;BME280;49099;28.428;-16.488;2023-04-20T00:29:06;98474.31;;;19.88;55.02
63009;BME280;49099;28.428;-16.488;2023-04-20T00:31:33;98474.59;;;19.95;54.76
63009;BME280;49099;28.428;-16.488;2023-04-20T00:34:00;98472.81;;;19.99;53.69
63009;BME280;49099;28.428;-16.488;2023-04-20T00:36:27;98466.88;;;19.94;54.19
63009;BME280;49099;28.428;-16.488;2023-04-20T00:38:55;98466.38;;;19.92;54.15
63009;BME280;49099;28.428;-16.488;2023-04-20T00:41:22;98459.75;;;19.89;54.63
63009;BME280;49099;28.428;-16.488;2023-04-20T00:43:53;98457.38;;;19.88;55.28
63009;BME280;49099;28.428;-16.488;2023-04-20T00:46:20;98448.56;;;19.79;55.40
63009;BME280;49099;28.428;-16.488;2023-04-20T00:48:52;98463.16;;;19.78;55.12
63009;BME280;49099;28.428;-16.488;2023-04-20T00:51:21;98456.16;;;19.76;55.61
63009;BME280;49099;28.428;-16.488;2023-04-20T00:53:48;98459.97;;;19.75;55.45
63009;BME280;49099;28.428;-16.488;2023-04-20T00:56:15;98469.31;;;19.78;54.62
63009;BME280;49099;28.428;-16.488;2023-04-20T00:58:43;98466.03;;;19.72;54.87
63009;BME280;49099;28.428;-16.488;2023-04-20T01:01:11;98464.00;;;19.69;54.13
63009;BME280;49099;28.428;-16.488;2023-04-20T01:03:38;98468.25;;;19.70;53.77
63009;BME280;49099;28.428;-16.488;2023-04-20T01:06:06;98454.84;;;19.62;53.66
63009;BME280;49099;28.428;-16.488;2023-04-20T01:08:34;98462.72;;;19.67;53.89
63009;BME280;49099;28.428;-16.488;2023-04-20T01:11:02;98454.63;;;19.67;53.74
63009;BME280;49099;28.428;-16.488;2023-04-20T01:13:31;98451.81;;;19.63;53.27
63009;BME280;49099;28.428;-16.488;2023-04-20T01:16:32;98450.09;;;19.59;53.30
63009;BME280;49099;28.428;-16.488;2023-04-20T01:19:01;98439.97;;;19.56;54.09
63009;BME280;49099;28.428;-16.488;2023-04-20T01:21:29;98437.09;;;19.52;53.59
63009;BME280;49099;28.428;-16.488;2023-04-20T01:23:57;98421.16;;;19.47;54.09
63009;BME280;49099;28.428;-16.488;2023-04-20T01:26:24;98423.03;;;19.55;53.74
63009;BME280;49099;28.428;-16.488;2023-04-20T01:28:52;98430.94;;;19.60;54.12
63009;BME280;49099;28.428;-16.488;2023-04-20T01:31:19;98428.72;;;19.62;54.83
63009;BME280;49099;28.428;-16.488;2023-04-20T01:33:47;98420.59;;;19.71;54.60
63009;BME280;49099;28.428;-16.488;2023-04-20T01:36:14;98397.69;;;19.56;54.31
63009;BME280;49099;28.428;-16.488;2023-04-20T01:38:41;98403.84;;;19.65;55.36
63009;BME280;49099;28.428;-16.488;2023-04-20T01:41:09;98396.91;;;19.64;55.42
63009;BME280;49099;28.428;-16.488;2023-04-20T01:43:37;98415.16;;;19.80;53.57
63009;BME280;49099;28.428;-16.488;2023-04-20T01:46:05;98406.81;;;19.72;54.31
63009;BME280;49099;28.428;-16.488;2023-04-20T01:48:32;98396.28;;;19.59;54.55
63009;BME280;49099;28.428;-16.488;2023-04-20T01:50:59;98398.31;;;19.53;54.43
63009;BME280;49099;28.428;-16.488;2023-04-20T01:53:26;98399.78;;;19.51;54.30
63009;BME280;49099;28.428;-16.488;2023-04-20T01:55:54;98375.63;;;19.42;54.19
63009;BME280;49099;28.428;-16.488;2023-04-20T01:58:21;98375.78;;;19.37;54.14
63009;BME280;49099;28.428;-16.488;2023-04-20T02:00:48;98395.69;;;19.44;53.87
63009;BME280;49099;28.428;-16.488;2023-04-20T02:03:16;98401.34;;;19.52;54.18
63009;BME280;49099;28.428;-16.488;2023-04-20T02:05:43;98393.94;;;19.48;53.70
63009;BME280;49099;28.428;-16.488;2023-04-20T02:08:11;98386.84;;;19.44;53.84
63009;BME280;49099;28.428;-16.488;2023-04-20T02:10:38;98369.56;;;19.45;54.09
63009;BME280;49099;28.428;-16.488;2023-04-20T02:13:05;98360.78;;;19.36;53.84
63009;BME280;49099;28.428;-16.488;2023-04-20T02:15:32;98380.63;;;19.52;53.37
63009;BME280;49099;28.428;-16.488;2023-04-20T02:17:59;98365.97;;;19.41;53.48
63009;BME280;49099;28.428;-16.488;2023-04-20T02:20:27;98358.56;;;19.38;53.63
63009;BME280;49099;28.428;-16.488;2023-04-20T02:22:54;98364.84;;;19.42;54.25
63009;BME280;49099;28.428;-16.488;2023-04-20T02:25:21;98356.97;;;19.37;54.46
63009;BME280;49099;28.428;-16.488;2023-04-20T02:27:48;98357.25;;;19.44;54.07
63009;BME280;49099;28.428;-16.488;2023-04-20T02:30:15;98348.38;;;19.43;54.05
63009;BME280;49099;28.428;-16.488;2023-04-20T02:32:43;98356.28;;;19.48;54.16
63009;BME280;49099;28.428;-16.488;2023-04-20T02:35:10;98355.53;;;19.39;53.67
63009;BME280;49099;28.428;-16.488;2023-04-20T02:37:38;98357.91;;;19.41;54.03
63009;BME280;49099;28.428;-16.488;2023-04-20T02:40:06;98357.25;;;19.44;53.87
63009;BME280;49099;28.428;-16.488;2023-04-20T02:42:34;98345.53;;;19.48;54.66
63009;BME280;49099;28.428;-16.488;2023-04-20T02:45:02;98333.53;;;19.46;54.89
63009;BME280;49099;28.428;-16.488;2023-04-20T02:47:29;98348.50;;;19.56;54.26
63009;BME280;49099;28.428;-16.488;2023-04-20T02:49:56;98341.09;;;19.44;55.10
63009;BME280;49099;28.428;-16.488;2023-04-20T02:52:24;98355.16;;;19.58;54.66
63009;BME280;49099;28.428;-16.488;2023-04-20T02:54:51;98348.66;;;19.59;54.50
63009;BME280;49099;28.428;-16.488;2023-04-20T02:57:18;98343.91;;;19.56;54.41
63009;BME280;49099;28.428;-16.488;2023-04-20T02:59:45;98337.44;;;19.48;54.31
63009;BME280;49099;28.428;-16.488;2023-04-20T03:02:12;98333.66;;;19.49;54.81
63009;BME280;49099;28.428;-16.488;2023-04-20T03:04:40;98344.75;;;19.48;54.73
63009;BME280;49099;28.428;-16.488;2023-04-20T03:07:07;98348.34;;;19.52;55.01
63009;BME280;49099;28.428;-16.488;2023-04-20T03:09:35;98325.31;;;19.42;54.91
63009;BME280;49099;28.428;-16.488;2023-04-20T03:12:03;98337.31;;;19.45;54.96
63009;BME280;49099;28.428;-16.488;2023-04-20T03:14:31;98331.47;;;19.43;55.24
63009;BME280;49099;28.428;-16.488;2023-04-20T03:16:58;98330.34;;;19.44;55.25
63009;BME280;49099;28.428;-16.488;2023-04-20T03:19:25;98327.34;;;19.45;55.35
63009;BME280;49099;28.428;-16.488;2023-04-20T03:21:52;98323.59;;;19.38;55.57
63009;BME280;49099;28.428;-16.488;2023-04-20T03:24:20;98337.78;;;19.47;55.63
63009;BME280;49099;28.428;-16.488;2023-04-20T03:26:48;98337.50;;;19.40;55.58
63009;BME280;49099;28.428;-16.488;2023-04-20T03:29:15;98339.53;;;19.43;55.54
63009;BME280;49099;28.428;-16.488;2023-04-20T03:31:42;98332.59;;;19.42;55.97
63009;BME280;49099;28.428;-16.488;2023-04-20T03:34:10;98330.84;;;19.37;55.67
63009;BME280;49099;28.428;-16.488;2023-04-20T03:36:37;98342.03;;;19.48;55.88
63009;BME280;49099;28.428;-16.488;2023-04-20T03:39:04;98320.91;;;19.38;55.66
63009;BME280;49099;28.428;-16.488;2023-04-20T03:41:32;98338.91;;;19.46;55.58
63009;BME280;49099;28.428;-16.488;2023-04-20T03:43:59;98343.91;;;19.56;55.69
63009;BME280;49099;28.428;-16.488;2023-04-20T03:46:26;98329.06;;;19.50;55.24
63009;BME280;49099;28.428;-16.488;2023-04-20T03:48:54;98343.91;;;19.56;55.37
63009;BME280;49099;28.428;-16.488;2023-04-20T03:51:21;98325.63;;;19.41;55.32
63009;BME280;49099;28.428;-16.488;2023-04-20T03:53:48;98332.72;;;19.45;55.64
63009;BME280;49099;28.428;-16.488;2023-04-20T03:56:15;98334.44;;;19.50;55.38
63009;BME280;49099;28.428;-16.488;2023-04-20T03:58:43;98318.97;;;19.47;55.81
63009;BME280;49099;28.428;-16.488;2023-04-20T04:01:10;98330.16;;;19.49;55.52
63009;BME280;49099;28.428;-16.488;2023-04-20T04:03:39;98315.31;;;19.43;56.81
63009;BME280;49099;28.428;-16.488;2023-04-20T04:06:06;98306.88;;;19.53;55.46
63009;BME280;49099;28.428;-16.488;2023-04-20T04:08:33;98308.31;;;19.51;55.70
63009;BME280;49099;28.428;-16.488;2023-04-20T04:11:00;98298.56;;;19.46;55.85
63009;BME280;49099;28.428;-16.488;2023-04-20T04:13:28;98320.00;;;19.55;56.13
63009;BME280;49099;28.428;-16.488;2023-04-20T04:15:55;98293.19;;;19.46;55.87
63009;BME280;49099;28.428;-16.488;2023-04-20T04:18:22;98294.53;;;19.52;55.88
63009;BME280;49099;28.428;-16.488;2023-04-20T04:20:49;98309.22;;;19.63;55.94
63009;BME280;49099;28.428;-16.488;2023-04-20T04:23:17;98295.31;;;19.61;55.86
63009;BME280;49099;28.428;-16.488;2023-04-20T04:25:44;98286.44;;;19.61;55.58
63009;BME280;49099;28.428;-16.488;2023-04-20T04:28:11;98300.94;;;19.68;55.37
63009;BME280;49099;28.428;-16.488;2023-04-20T04:30:40;98300.84;;;19.56;56.13
63009;BME280;49099;28.428;-16.488;2023-04-20T04:33:07;98293.91;;;19.55;56.47
63009;BME280;49099;28.428;-16.488;2023-04-20T04:35:35;98307.78;;;19.66;55.90
63009;BME280;49099;28.428;-16.488;2023-04-20T04:38:03;98308.09;;;19.64;55.96
63009;BME280;49099;28.428;-16.488;2023-04-20T04:40:30;98300.84;;;19.56;56.52
63009;BME280;49099;28.428;-16.488;2023-04-20T04:42:59;98295.03;;;19.54;56.69
63009;BME280;49099;28.428;-16.488;2023-04-20T04:45:26;98303.09;;;19.54;56.74
63009;BME280;49099;28.428;-16.488;2023-04-20T04:47:54;98304.28;;;19.65;57.10
63009;BME280;49099;28.428;-16.488;2023-04-20T04:50:23;98303.63;;;19.68;57.26
63009;BME280;49099;28.428;-16.488;2023-04-20T04:52:50;98300.75;;;19.73;56.98
63009;BME280;49099;28.428;-16.488;2023-04-20T04:55:17;98305.16;;;19.78;57.15
63009;BME280;49099;28.428;-16.488;2023-04-20T04:57:44;98294.19;;;19.62;56.89
63009;BME280;49099;28.428;-16.488;2023-04-20T05:00:12;98301.28;;;19.67;56.71
63009;BME280;49099;28.428;-16.488;2023-04-20T05:02:40;98294.31;;;19.66;56.21
63009;BME280;49099;28.428;-16.488;2023-04-20T05:05:08;98274.13;;;19.51;56.50
63009;BME280;49099;28.428;-16.488;2023-04-20T05:07:36;98294.19;;;19.62;55.80
63009;BME280;49099;28.428;-16.488;2023-04-20T05:10:05;98295.09;;;19.66;55.84
63009;BME280;49099;28.428;-16.488;2023-04-20T05:12:33;98298.78;;;19.62;55.08
63009;BME280;49099;28.428;-16.488;2023-04-20T05:15:01;98297.19;;;19.61;55.89
63009;BME280;49099;28.428;-16.488;2023-04-20T05:17:28;98280.19;;;19.48;56.59
63009;BME280;49099;28.428;-16.488;2023-04-20T05:19:55;98288.25;;;19.48;54.26
63009;BME280;49099;28.428;-16.488;2023-04-20T05:22:23;98299.00;;;19.48;55.03
63009;BME280;49099;28.428;-16.488;2023-04-20T05:24:50;98295.19;;;19.49;54.19
63009;BME280;49099;28.428;-16.488;2023-04-20T05:27:17;98286.00;;;19.50;56.57
63009;BME280;49099;28.428;-16.488;2023-04-20T05:29:44;98278.88;;;19.54;55.48
63009;BME280;49099;28.428;-16.488;2023-04-20T05:32:11;98272.38;;;19.55;54.31
63009;BME280;49099;28.428;-16.488;2023-04-20T05:34:39;98268.75;;;19.51;54.91
63009;BME280;49099;28.428;-16.488;2023-04-20T05:37:06;98279.34;;;19.56;54.95
63009;BME280;49099;28.428;-16.488;2023-04-20T05:39:33;98282.88;;;19.48;54.16
63009;BME280;49099;28.428;-16.488;2023-04-20T05:42:01;98273.41;;;19.42;54.60
63009;BME280;49099;28.428;-16.488;2023-04-20T05:44:28;98276.25;;;19.45;53.48
63009;BME280;49099;28.428;-16.488;2023-04-20T05:46:58;98273.69;;;19.49;53.90
63009;BME280;49099;28.428;-16.488;2023-04-20T05:49:25;98268.97;;;19.46;53.63
63009;BME280;49099;28.428;-16.488;2023-04-20T05:51:52;98258.22;;;19.46;54.73
63009;BME280;49099;28.428;-16.488;2023-04-20T05:54:20;98277.91;;;19.59;54.05
63009;BME280;49099;28.428;-16.488;2023-04-20T05:56:47;98261.81;;;19.50;54.56
63009;BME280;49099;28.428;-16.488;2023-04-20T05:59:15;98258.00;;;19.51;53.70
63009;BME280;49099;28.428;-16.488;2023-04-20T06:01:43;98262.88;;;19.58;54.03
63009;BME280;49099;28.428;-16.488;2023-04-20T06:04:10;98263.19;;;19.56;53.89
63009;BME280;49099;28.428;-16.488;2023-04-20T06:06:38;98257.16;;;19.59;54.13
63009;BME280;49099;28.428;-16.488;2023-04-20T06:09:05;98258.28;;;19.58;54.47
63009;BME280;49099;28.428;-16.488;2023-04-20T06:11:33;98261.13;;;19.62;54.82
63009;BME280;49099;28.428;-16.488;2023-04-20T06:14:00;98265.44;;;19.54;54.89
63009;BME280;49099;28.428;-16.488;2023-04-20T06:16:27;98267.34;;;19.54;55.08
63009;BME280;49099;28.428;-16.488;2023-04-20T06:18:54;98279.50;;;19.51;55.22
63009;BME280;49099;28.428;-16.488;2023-04-20T06:21:22;98260.41;;;19.44;55.61
63009;BME280;49099;28.428;-16.488;2023-04-20T06:23:50;98246.41;;;19.38;55.37
63009;BME280;49099;28.428;-16.488;2023-04-20T06:26:17;98268.31;;;19.49;55.46
63009;BME280;49099;28.428;-16.488;2023-04-20T06:28:44;98249.22;;;19.42;55.54
63009;BME280;49099;28.428;-16.488;2023-04-20T06:31:12;98263.59;;;19.46;55.83
63009;BME280;49099;28.428;-16.488;2023-04-20T06:33:40;98251.38;;;19.48;55.71
63009;BME280;49099;28.428;-16.488;2023-04-20T06:36:07;98264.13;;;19.60;55.28
63009;BME280;49099;28.428;-16.488;2023-04-20T06:38:34;98264.38;;;19.67;55.22
63009;BME280;49099;28.428;-16.488;2023-04-20T06:41:02;98255.06;;;19.65;55.16
63009;BME280;49099;28.428;-16.488;2023-04-20T06:43:29;98267.75;;;19.64;55.52
63009;BME280;49099;28.428;-16.488;2023-04-20T06:45:56;98256.88;;;19.52;54.22
63009;BME280;49099;28.428;-16.488;2023-04-20T06:48:24;98249.81;;;19.47;52.70
63009;BME280;49099;28.428;-16.488;2023-04-20T06:50:58;98265.16;;;19.47;52.42
63009;BME280;49099;28.428;-16.488;2023-04-20T06:53:26;98268.31;;;19.49;53.72
63009;BME280;49099;28.428;-16.488;2023-04-20T06:55:54;98259.78;;;19.47;54.09
63009;BME280;49099;28.428;-16.488;2023-04-20T06:58:21;98257.28;;;19.42;53.12
63009;BME280;49099;28.428;-16.488;2023-04-20T07:00:49;98268.13;;;19.54;52.92
63009;BME280;49099;28.428;-16.488;2023-04-20T07:03:16;98268.75;;;19.51;54.63
63009;BME280;49099;28.428;-16.488;2023-04-20T07:05:45;98271.44;;;19.51;55.21
63009;BME280;49099;28.428;-16.488;2023-04-20T07:08:12;98273.00;;;19.52;54.80
63009;BME280;49099;28.428;-16.488;2023-04-20T07:10:41;98266.72;;;19.48;54.96
63009;BME280;49099;28.428;-16.488;2023-04-20T07:13:09;98273.00;;;19.52;55.20
63009;BME280;49099;28.428;-16.488;2023-04-20T07:15:36;98291.63;;;19.66;54.73
63009;BME280;49099;28.428;-16.488;2023-04-20T07:18:03;98267.16;;;19.59;54.61
63009;BME280;49099;28.428;-16.488;2023-04-20T07:20:32;98285.38;;;19.74;54.63
63009;BME280;49099;28.428;-16.488;2023-04-20T07:22:59;98272.19;;;19.60;54.78
63009;BME280;49099;28.428;-16.488;2023-04-20T07:25:26;98285.47;;;19.65;54.94
63009;BME280;49099;28.428;-16.488;2023-04-20T07:27:53;98280.53;;;19.67;54.45
63009;BME280;49099;28.428;-16.488;2023-04-20T07:30:21;98308.13;;;19.85;54.90
63009;BME280;49099;28.428;-16.488;2023-04-20T07:32:48;98306.84;;;19.83;53.70
63009;BME280;49099;28.428;-16.488;2023-04-20T07:35:15;98299.19;;;19.72;53.20
63009;BME280;49099;28.428;-16.488;2023-04-20T07:37:43;98302.38;;;19.66;54.28
63009;BME280;49099;28.428;-16.488;2023-04-20T07:40:10;98326.34;;;19.80;54.04
63009;BME280;49099;28.428;-16.488;2023-04-20T07:42:37;98315.44;;;19.76;54.45
63009;BME280;49099;28.428;-16.488;2023-04-20T07:45:05;98324.13;;;19.82;54.97
63009;BME280;49099;28.428;-16.488;2023-04-20T07:47:33;98322.44;;;19.77;54.77
63009;BME280;49099;28.428;-16.488;2023-04-20T07:50:02;98324.19;;;19.73;54.76
63009;BME280;49099;28.428;-16.488;2023-04-20T07:52:29;98337.38;;;19.87;55.80
63009;BME280;49099;28.428;-16.488;2023-04-20T07:54:56;98338.03;;;19.84;55.41
63009;BME280;49099;28.428;-16.488;2023-04-20T07:57:26;98345.25;;;19.92;55.71
63009;BME280;49099;28.428;-16.488;2023-04-20T07:59:54;98343.41;;;19.84;55.61
63009;BME280;49099;28.428;-16.488;2023-04-20T08:02:21;98337.75;;;19.76;55.79
63009;BME280;49099;28.428;-16.488;2023-04-20T08:04:49;98337.63;;;19.73;55.38
63009;BME280;49099;28.428;-16.488;2023-04-20T08:07:16;98333.72;;;19.70;55.33
63009;BME280;49099;28.428;-16.488;2023-04-20T08:09:43;98345.97;;;19.80;55.00
63009;BME280;49099;28.428;-16.488;2023-04-20T08:12:11;98351.97;;;19.86;56.04
63009;BME280;49099;28.428;-16.488;2023-04-20T08:14:38;98351.44;;;19.92;55.94
63009;BME280;49099;28.428;-16.488;2023-04-20T08:17:07;98354.72;;;19.98;55.44
63009;BME280;49099;28.428;-16.488;2023-04-20T08:19:34;98356.09;;;20.04;54.71
63009;BME280;49099;28.428;-16.488;2023-04-20T08:22:01;98362.41;;;20.08;54.81
63009;BME280;49099;28.428;-16.488;2023-04-20T08:24:29;98349.91;;;20.03;54.69
63009;BME280;49099;28.428;-16.488;2023-04-20T08:26:56;98362.34;;;19.96;54.71
63009;BME280;49099;28.428;-16.488;2023-04-20T08:29:25;98367.72;;;19.96;55.04
63009;BME280;49099;28.428;-16.488;2023-04-20T08:31:52;98382.69;;;20.06;55.49
63009;BME280;49099;28.428;-16.488;2023-04-20T08:34:19;98381.78;;;20.01;55.72
63009;BME280;49099;28.428;-16.488;2023-04-20T08:36:47;98378.59;;;19.99;55.05
63009;BME280;49099;28.428;-16.488;2023-04-20T08:39:18;98390.50;;;19.98;54.22
63009;BME280;49099;28.428;-16.488;2023-04-20T08:41:46;98378.66;;;19.91;54.29
63009;BME280;49099;28.428;-16.488;2023-04-20T08:44:13;98378.28;;;19.80;53.88
63009;BME280;49099;28.428;-16.488;2023-04-20T08:46:46;98376.25;;;19.77;54.24
63009;BME280;49099;28.428;-16.488;2023-04-20T08:49:17;98373.22;;;19.79;53.53
63009;BME280;49099;28.428;-16.488;2023-04-20T08:51:46;98376.25;;;19.77;53.89
63009;BME280;49099;28.428;-16.488;2023-04-20T08:54:14;98392.97;;;19.83;53.98
63009;BME280;49099;28.428;-16.488;2023-04-20T08:56:44;98380.44;;;19.87;54.13
63009;BME280;49099;28.428;-16.488;2023-04-20T08:59:14;98389.44;;;19.91;54.04
63009;BME280;49099;28.428;-16.488;2023-04-20T09:01:43;98390.72;;;19.93;54.75
63009;BME280;49099;28.428;-16.488;2023-04-20T09:04:17;98409.03;;;20.00;54.17
63009;BME280;49099;28.428;-16.488;2023-04-20T09:06:47;98410.13;;;19.99;54.24
63009;BME280;49099;28.428;-16.488;2023-04-20T09:09:16;98411.91;;;19.95;54.47
63009;BME280;49099;28.428;-16.488;2023-04-20T09:11:45;98413.03;;;19.94;54.78
63009;BME280;49099;28.428;-16.488;2023-04-20T09:14:14;98399.47;;;19.82;54.40
63009;BME280;49099;28.428;-16.488;2023-04-20T09:16:53;98406.16;;;19.75;54.76
63009;BME280;49099;28.428;-16.488;2023-04-20T09:19:28;98408.50;;;19.86;54.86
63009;BME280;49099;28.428;-16.488;2023-04-20T09:21:57;98418.75;;;19.92;54.75
63009;BME280;49099;28.428;-16.488;2023-04-20T09:24:36;98409.72;;;19.88;54.54
63009;BME280;49099;28.428;-16.488;2023-04-20T09:27:15;98421.56;;;19.96;54.58
63009;BME280;49099;28.428;-16.488;2023-04-20T09:29:42;98407.97;;;19.92;54.15
63009;BME280;49099;28.428;-16.488;2023-04-20T09:32:26;98408.22;;;19.99;54.29
63009;BME280;49099;28.428;-16.488;2023-04-20T09:34:55;98421.25;;;20.18;54.11
63009;BME280;49099;28.428;-16.488;2023-04-20T09:37:23;98420.78;;;20.16;53.99
63009;BME280;49099;28.428;-16.488;2023-04-20T09:39:54;98424.72;;;20.19;53.97
63009;BME280;49099;28.428;-16.488;2023-04-20T09:42:27;98419.00;;;20.20;53.18
63009;BME280;49099;28.428;-16.488;2023-04-20T09:44:56;98423.28;;;20.21;53.76
63009;BME280;49099;28.428;-16.488;2023-04-20T09:47:23;98414.84;;;20.23;53.91
63009;BME280;49099;28.428;-16.488;2023-04-20T09:49:53;98419.47;;;20.22;53.72
63009;BME280;49099;28.428;-16.488;2023-04-20T09:52:23;98432.84;;;20.31;53.00
63009;BME280;49099;28.428;-16.488;2023-04-20T09:54:53;98429.97;;;20.36;53.74
63009;BME280;49099;28.428;-16.488;2023-04-20T09:57:20;98422.22;;;20.35;53.27
63009;BME280;49099;28.428;-16.488;2023-04-20T09:59:50;98423.91;;;20.48;53.34
63009;BME280;49099;28.428;-16.488;2023-04-20T10:02:18;98410.94;;;20.41;53.25
63009;BME280;49099;28.428;-16.488;2023-04-20T10:04:56;98426.84;;;20.55;52.81
63009;BME280;49099;28.428;-16.488;2023-04-20T10:07:28;98432.84;;;20.73;52.90
63009;BME280;49099;28.428;-16.488;2023-04-20T10:10:13;98434.16;;;20.88;51.92
63009;BME280;49099;28.428;-16.488;2023-04-20T10:12:51;98440.81;;;21.02;51.79
63009;BME280;49099;28.428;-16.488;2023-04-20T10:15:19;98433.72;;;20.98;51.90
63009;BME280;49099;28.428;-16.488;2023-04-20T10:17:51;98429.44;;;20.97;52.06
63009;BME280;49099;28.428;-16.488;2023-04-20T10:20:21;98447.00;;;21.15;51.50
63009;BME280;49099;28.428;-16.488;2023-04-20T10:22:50;98433.06;;;21.13;51.21
63009;BME280;49099;28.428;-16.488;2023-04-20T10:25:22;98433.91;;;21.26;51.19
63009;BME280;49099;28.428;-16.488;2023-04-20T10:27:58;98441.91;;;21.34;50.57
63009;BME280;49099;28.428;-16.488;2023-04-20T10:30:27;98453.81;;;21.46;50.40
63009;BME280;49099;28.428;-16.488;2023-04-20T10:33:09;98452.03;;;21.50;50.50
63009;BME280;49099;28.428;-16.488;2023-04-20T10:38:11;98458.81;;;21.56;50.58
63009;BME280;49099;28.428;-16.488;2023-04-20T10:40:38;98439.78;;;21.40;51.05
63009;BME280;49099;28.428;-16.488;2023-04-20T10:43:17;98462.16;;;21.40;51.35
63009;BME280;49099;28.428;-16.488;2023-04-20T10:45:46;98438.63;;;21.29;51.27
63009;BME280;49099;28.428;-16.488;2023-04-20T10:48:13;98457.19;;;21.30;51.60
63009;BME280;49099;28.428;-16.488;2023-04-20T10:50:43;98461.94;;;21.33;51.47
63009;BME280;49099;28.428;-16.488;2023-04-20T10:53:22;98452.25;;;21.32;51.73
63009;BME280;49099;28.428;-16.488;2023-04-20T10:55:59;98465.41;;;21.34;51.88
63009;BME280;49099;28.428;-16.488;2023-04-20T10:58:26;98454.97;;;21.32;52.26
63009;BME280;49099;28.428;-16.488;2023-04-20T11:00:58;98455.97;;;21.40;52.13
63009;BME280;49099;28.428;-16.488;2023-04-20T11:03:27;98465.31;;;21.55;51.05
63009;BME280;49099;28.428;-16.488;2023-04-20T11:05:59;98466.00;;;21.64;50.70
63009;BME280;49099;28.428;-16.488;2023-04-20T11:08:36;98461.63;;;21.72;50.30
63009;BME280;49099;28.428;-16.488;2023-04-20T11:11:04;98462.41;;;21.72;50.13
63009;BME280;49099;28.428;-16.488;2023-04-20T11:13:32;98450.59;;;21.64;49.67
63009;BME280;49099;28.428;-16.488;2023-04-20T11:16:09;98448.00;;;21.68;49.55
63009;BME280;49099;28.428;-16.488;2023-04-20T11:18:51;98445.53;;;21.75;49.68
63009;BME280;49099;28.428;-16.488;2023-04-20T11:21:20;98447.88;;;21.77;49.59
63009;BME280;49099;28.428;-16.488;2023-04-20T11:23:49;98444.59;;;21.71;49.72
63009;BME280;49099;28.428;-16.488;2023-04-20T11:26:16;98449.91;;;21.67;49.32
63009;BME280;49099;28.428;-16.488;2023-04-20T11:28:53;98432.16;;;21.66;49.48
63009;BME280;49099;28.428;-16.488;2023-04-20T11:31:22;98428.22;;;21.64;49.25
63009;BME280;49099;28.428;-16.488;2023-04-20T11:33:49;98441.03;;;21.79;48.99
63009;BME280;49099;28.428;-16.488;2023-04-20T11:36:21;98435.63;;;21.79;48.99
63009;BME280;49099;28.428;-16.488;2023-04-20T11:38:49;98427.06;;;21.77;49.43
63009;BME280;49099;28.428;-16.488;2023-04-20T11:41:17;98433.94;;;21.87;48.95
63009;BME280;49099;28.428;-16.488;2023-04-20T11:43:44;98435.81;;;21.86;48.63
63009;BME280;49099;28.428;-16.488;2023-04-20T11:46:13;98432.03;;;21.87;49.10
63009;BME280;49099;28.428;-16.488;2023-04-20T11:48:41;98424.38;;;21.89;49.16
63009;BME280;49099;28.428;-16.488;2023-04-20T11:51:08;98413.22;;;22.03;49.07
63009;BME280;49099;28.428;-16.488;2023-04-20T11:53:36;98413.31;;;22.19;48.44
63009;BME280;49099;28.428;-16.488;2023-04-20T11:56:04;98414.53;;;22.21;48.97
63009;BME280;49099;28.428;-16.488;2023-04-20T11:58:31;98406.97;;;22.27;49.00
63009;BME280;49099;28.428;-16.488;2023-04-20T12:00:59;98410.91;;;22.30;48.82
63009;BME280;49099;28.428;-16.488;2023-04-20T12:03:26;98426.59;;;22.12;49.43
63009;BME280;49099;28.428;-16.488;2023-04-20T12:05:54;98404.34;;;21.90;49.63
63009;BME280;49099;28.428;-16.488;2023-04-20T12:08:21;98397.50;;;21.81;48.92
63009;BME280;49099;28.428;-16.488;2023-04-20T12:10:50;98401.19;;;21.88;49.66
63009;BME280;49099;28.428;-16.488;2023-04-20T12:13:17;98399.84;;;21.94;49.46
63009;BME280;49099;28.428;-16.488;2023-04-20T12:15:44;98412.19;;;22.08;49.23
63009;BME280;49099;28.428;-16.488;2023-04-20T12:18:12;98416.16;;;22.10;49.21
63009;BME280;49099;28.428;-16.488;2023-04-20T12:20:39;98403.44;;;22.11;49.01
63009;BME280;49099;28.428;-16.488;2023-04-20T12:23:06;98419.94;;;22.21;49.14
63009;BME280;49099;28.428;-16.488;2023-04-20T12:25:33;98398.78;;;21.99;49.55
63009;BME280;49099;28.428;-16.488;2023-04-20T12:28:00;98405.19;;;22.07;49.78
63009;BME280;49099;28.428;-16.488;2023-04-20T12:30:33;98397.78;;;22.04;49.47
63009;BME280;49099;28.428;-16.488;2023-04-20T12:33:02;98386.75;;;22.09;49.30
63009;BME280;49099;28.428;-16.488;2023-04-20T12:35:29;98388.50;;;22.29;48.91
63009;BME280;49099;28.428;-16.488;2023-04-20T12:37:57;98384.88;;;22.37;48.28
63009;BME280;49099;28.428;-16.488;2023-04-20T12:40:24;98395.69;;;22.37;47.59
63009;BME280;49099;28.428;-16.488;2023-04-20T12:42:51;98392.44;;;22.32;48.72
63009;BME280;49099;28.428;-16.488;2023-04-20T12:45:19;98399.31;;;22.29;49.24
63009;BME280;49099;28.428;-16.488;2023-04-20T12:47:46;98386.72;;;22.21;49.53
63009;BME280;49099;28.428;-16.488;2023-04-20T12:50:14;98377.28;;;22.15;49.59